sensor_id;sensor_type;location;lat;lon;timestamp;pressure;altitude;pressure_sealevel;temperature;humidity
71964;BME280;59834;52.124;5.422;2022-11-03T00:02:00;101458.88;;;10.07;80.80
71964;BME280;59834;52.124;5.422;2022-11-03T00:04:27;101443.25;;;10.06;81.17
71964;BME280;59834;52.124;5.422;2022-11-03T00:06:54;101445.13;;;10.04;81.09
71964;BME280;59834;52.124;5.422;2022-11-03T00:09:21;101449.41;;;10.05;81.44
71964;BME280;59834;52.124;5.422;2022-11-03T00:11:49;101445.72;;;10.09;80.84
71964;BME280;59834;52.124;5.422;2022-11-03T00:14:16;101426.66;;;10.07;80.58
71964;BME280;59834;52.124;5.422;2022-11-03T00:16:43;101422.31;;;10.06;81.19
71964;BME280;59834;52.124;5.422;2022-11-03T00:19:11;101405.78;;;10.05;81.46
71964;BME280;59834;52.124;5.422;2022-11-03T00:21:39;101403.94;;;10.07;81.00
71964;BME280;59834;52.124;5.422;2022-11-03T00:24:05;101393.56;;;10.06;81.01
71964;BME280;59834;52.124;5.422;2022-11-03T00:26:33;101391.88;;;10.05;81.42
71964;BME280;59834;52.124;5.422;2022-11-03T00:29:05;101389.25;;;10.05;80.67
71964;BME280;59834;52.124;5.422;2022-11-03T00:31:34;101382.94;;;10.09;81.65
71964;BME280;59834;52.124;5.422;2022-11-03T00:34:04;101384.66;;;10.10;81.45
71964;BME280;59834;52.124;5.422;2022-11-03T00:36:34;101385.38;;;10.12;81.25
71964;BME280;59834;52.124;5.422;2022-11-03T00:39:03;101370.78;;;10.08;81.47
71964;BME280;59834;52.124;5.422;2022-11-03T00:41:32;101369.00;;;10.08;80.61
71964;BME280;59834;52.124;5.422;2022-11-03T00:43:59;101362.09;;;10.07;81.48
71964;BME280;59834;52.124;5.422;2022-11-03T00:46:26;101367.25;;;10.09;80.93
71964;BME280;59834;52.124;5.422;2022-11-03T00:48:53;101362.88;;;10.09;81.23
71964;BME280;59834;52.124;5.422;2022-11-03T00:53:49;101363.56;;;10.13;80.53
71964;BME280;59834;52.124;5.422;2022-11-03T00:56:18;101361.69;;;10.15;81.08
71964;BME280;59834;52.124;5.422;2022-11-03T00:58:45;101360.84;;;10.14;81.18
71964;BME280;59834;52.124;5.422;2022-11-03T01:01:17;101359.06;;;10.15;80.45
71964;BME280;59834;52.124;5.422;2022-11-03T01:03:50;101359.00;;;10.17;81.37
71964;BME280;59834;52.124;5.422;2022-11-03T01:06:38;101358.75;;;10.21;80.86
71964;BME280;59834;52.124;5.422;2022-11-03T01:09:25;101351.44;;;10.28;80.13
71964;BME280;59834;52.124;5.422;2022-11-03T01:14:30;101346.34;;;10.25;80.37
71964;BME280;59834;52.124;5.422;2022-11-03T01:16:57;101338.47;;;10.26;80.95
71964;BME280;59834;52.124;5.422;2022-11-03T01:19:23;101349.66;;;10.28;80.89
71964;BME280;59834;52.124;5.422;2022-11-03T01:21:51;101337.38;;;10.30;80.90
71964;BME280;59834;52.124;5.422;2022-11-03T01:24:18;101329.69;;;10.27;81.33
71964;BME280;59834;52.124;5.422;2022-11-03T01:26:45;101327.06;;;10.27;80.77
71964;BME280;59834;52.124;5.422;2022-11-03T01:29:11;101315.66;;;10.28;81.16
71964;BME280;59834;52.124;5.422;2022-11-03T01:31:38;101313.03;;;10.28;81.47
71964;BME280;59834;52.124;5.422;2022-11-03T01:34:05;101324.34;;;10.29;81.87
71964;BME280;59834;52.124;5.422;2022-11-03T01:36:31;101313.97;;;10.27;81.64
71964;BME280;59834;52.124;5.422;2022-11-03T01:38:58;101321.72;;;10.29;82.11
71964;BME280;59834;52.124;5.422;2022-11-03T01:41:26;101322.56;;;10.29;81.24
71964;BME280;59834;52.124;5.422;2022-11-03T01:47:16;101304.66;;;10.22;82.47
71964;BME280;59834;52.124;5.422;2022-11-03T01:49:47;101297.06;;;10.17;82.29
71964;BME280;59834;52.124;5.422;2022-11-03T01:52:33;101302.88;;;10.22;82.92
71964;BME280;59834;52.124;5.422;2022-11-03T01:55:06;101293.34;;;10.21;82.76
71964;BME280;59834;52.124;5.422;2022-11-03T01:57:58;101286.59;;;10.17;83.11
71964;BME280;59834;52.124;5.422;2022-11-03T02:00:26;101291.72;;;10.19;83.11
71964;BME280;59834;52.124;5.422;2022-11-03T02:02:52;101275.81;;;10.23;82.84
71964;BME280;59834;52.124;5.422;2022-11-03T02:05:21;101285.41;;;10.23;83.06
71964;BME280;59834;52.124;5.422;2022-11-03T02:07:59;101275.97;;;10.20;83.14
71964;BME280;59834;52.124;5.422;2022-11-03T02:10:29;101268.97;;;10.21;83.14
71964;BME280;59834;52.124;5.422;2022-11-03T02:12:56;101266.50;;;10.18;83.67
71964;BME280;59834;52.124;5.422;2022-11-03T02:15:24;101268.53;;;10.12;83.48
71964;BME280;59834;52.124;5.422;2022-11-03T02:17:53;101271.91;;;10.14;83.88
71964;BME280;59834;52.124;5.422;2022-11-03T02:20:26;101268.53;;;10.12;83.56
71964;BME280;59834;52.124;5.422;2022-11-03T02:25:55;101261.72;;;10.10;84.14
71964;BME280;59834;52.124;5.422;2022-11-03T02:28:24;101266.94;;;10.10;84.70
71964;BME280;59834;52.124;5.422;2022-11-03T02:34:06;101248.69;;;10.08;84.75
71964;BME280;59834;52.124;5.422;2022-11-03T02:36:43;101256.38;;;10.11;84.41
71964;BME280;59834;52.124;5.422;2022-11-03T02:39:18;101247.69;;;10.11;84.38
71964;BME280;59834;52.124;5.422;2022-11-03T02:41:55;101240.03;;;10.08;84.60
71964;BME280;59834;52.124;5.422;2022-11-03T02:44:23;101242.47;;;10.11;85.04
71964;BME280;59834;52.124;5.422;2022-11-03T02:46:55;101236.47;;;10.09;84.79
71964;BME280;59834;52.124;5.422;2022-11-03T02:49:23;101232.09;;;10.09;85.59
71964;BME280;59834;52.124;5.422;2022-11-03T02:52:04;101226.69;;;10.12;85.45
71964;BME280;59834;52.124;5.422;2022-11-03T02:54:40;101224.00;;;10.14;84.81
71964;BME280;59834;52.124;5.422;2022-11-03T02:57:20;101217.81;;;10.15;85.33
71964;BME280;59834;52.124;5.422;2022-11-03T02:59:57;101206.53;;;10.14;85.51
71964;BME280;59834;52.124;5.422;2022-11-03T03:02:33;101203.13;;;10.12;85.29
71964;BME280;59834;52.124;5.422;2022-11-03T03:05:05;101211.84;;;10.13;85.45
71964;BME280;59834;52.124;5.422;2022-11-03T03:07:37;101209.06;;;10.16;85.93
71964;BME280;59834;52.124;5.422;2022-11-03T03:10:25;101212.41;;;10.18;85.92
71964;BME280;59834;52.124;5.422;2022-11-03T03:12:55;101201.13;;;10.18;85.51
71964;BME280;59834;52.124;5.422;2022-11-03T03:15:39;101201.28;;;10.14;86.03
71964;BME280;59834;52.124;5.422;2022-11-03T03:18:15;101196.81;;;10.17;85.52
71964;BME280;59834;52.124;5.422;2022-11-03T03:23:20;101188.13;;;10.16;85.83
71964;BME280;59834;52.124;5.422;2022-11-03T03:26:00;101185.31;;;10.19;86.28
71964;BME280;59834;52.124;5.422;2022-11-03T03:28:36;101178.25;;;10.21;86.47
71964;BME280;59834;52.124;5.422;2022-11-03T03:31:08;101169.47;;;10.22;86.50
71964;BME280;59834;52.124;5.422;2022-11-03T03:33:36;101165.78;;;10.26;86.79
71964;BME280;59834;52.124;5.422;2022-11-03T03:36:15;101168.13;;;10.31;86.93
71964;BME280;59834;52.124;5.422;2022-11-03T03:39:11;101157.31;;;10.37;85.76
71964;BME280;59834;52.124;5.422;2022-11-03T03:41:40;101151.25;;;10.36;86.26
71964;BME280;59834;52.124;5.422;2022-11-03T03:44:08;101142.28;;;10.41;86.33
71964;BME280;59834;52.124;5.422;2022-11-03T03:46:39;101144.81;;;10.42;86.14
71964;BME280;59834;52.124;5.422;2022-11-03T03:49:07;101140.06;;;10.49;86.68
71964;BME280;59834;52.124;5.422;2022-11-03T03:51:34;101138.38;;;10.48;86.00
71964;BME280;59834;52.124;5.422;2022-11-03T03:54:02;101139.41;;;10.45;86.14
71964;BME280;59834;52.124;5.422;2022-11-03T03:56:35;101130.63;;;10.46;nan
71964;BME280;59834;52.124;5.422;2022-11-03T03:59:04;101135.75;;;10.48;86.60
71964;BME280;59834;52.124;5.422;2022-11-03T04:01:30;101133.16;;;10.48;86.91
71964;BME280;59834;52.124;5.422;2022-11-03T04:03:57;101129.50;;;10.50;86.81
71964;BME280;59834;52.124;5.422;2022-11-03T04:06:23;101126.78;;;10.52;86.69
71964;BME280;59834;52.124;5.422;2022-11-03T04:08:50;101125.59;;;10.57;87.04
71964;BME280;59834;52.124;5.422;2022-11-03T04:11:17;101113.19;;;10.61;86.74
71964;BME280;59834;52.124;5.422;2022-11-03T04:14:03;101130.38;;;10.65;86.66
71964;BME280;59834;52.124;5.422;2022-11-03T04:16:48;101129.44;;;10.66;86.37
71964;BME280;59834;52.124;5.422;2022-11-03T04:19:33;101120.09;;;10.62;86.39
71964;BME280;59834;52.124;5.422;2022-11-03T04:22:25;101124.59;;;10.60;86.13
71964;BME280;59834;52.124;5.422;2022-11-03T04:24:53;101116.06;;;10.56;86.63
71964;BME280;59834;52.124;5.422;2022-11-03T04:27:32;101102.22;;;10.54;86.44
71964;BME280;59834;52.124;5.422;2022-11-03T04:30:20;101108.47;;;10.52;86.44
71964;BME280;59834;52.124;5.422;2022-11-03T04:32:48;101107.47;;;10.54;86.90
71964;BME280;59834;52.124;5.422;2022-11-03T04:35:21;101109.25;;;10.54;nan
71964;BME280;59834;52.124;5.422;2022-11-03T04:38:00;101100.63;;;10.52;87.09
71964;BME280;59834;52.124;5.422;2022-11-03T04:40:27;101103.34;;;10.50;86.88
71964;BME280;59834;52.124;5.422;2022-11-03T04:42:55;101094.84;;;10.47;86.50
71964;BME280;59834;52.124;5.422;2022-11-03T04:45:32;101095.00;;;10.44;87.00
71964;BME280;59834;52.124;5.422;2022-11-03T04:48:01;101085.75;;;10.38;87.30
71964;BME280;59834;52.124;5.422;2022-11-03T04:50:35;101089.28;;;10.37;87.47
71964;BME280;59834;52.124;5.422;2022-11-03T04:53:08;101091.97;;;10.35;87.54
71964;BME280;59834;52.124;5.422;2022-11-03T04:55:38;101074.72;;;10.33;87.37
71964;BME280;59834;52.124;5.422;2022-11-03T04:58:17;101074.78;;;10.31;87.68
71964;BME280;59834;52.124;5.422;2022-11-03T05:00:43;101074.13;;;10.28;87.83
71964;BME280;59834;52.124;5.422;2022-11-03T05:03:15;101065.59;;;10.24;87.80
71964;BME280;59834;52.124;5.422;2022-11-03T05:05:42;101068.38;;;10.21;88.13
71964;BME280;59834;52.124;5.422;2022-11-03T05:08:10;101065.75;;;10.21;88.41
71964;BME280;59834;52.124;5.422;2022-11-03T05:10:38;101062.31;;;10.21;88.30
71964;BME280;59834;52.124;5.422;2022-11-03T05:13:29;101061.47;;;10.20;88.62
71964;BME280;59834;52.124;5.422;2022-11-03T05:16:05;101053.69;;;10.19;88.45
71964;BME280;59834;52.124;5.422;2022-11-03T05:18:33;101053.53;;;10.22;88.32
71964;BME280;59834;52.124;5.422;2022-11-03T05:21:04;101047.44;;;10.21;89.07
71964;BME280;59834;52.124;5.422;2022-11-03T05:23:38;101043.34;;;10.17;88.75
71964;BME280;59834;52.124;5.422;2022-11-03T05:26:14;101039.59;;;10.21;89.06
71964;BME280;59834;52.124;5.422;2022-11-03T05:28:44;101040.22;;;10.26;88.32
71964;BME280;59834;52.124;5.422;2022-11-03T05:31:27;101036.50;;;10.30;88.38
71964;BME280;59834;52.124;5.422;2022-11-03T05:34:00;101028.72;;;10.29;88.48
71964;BME280;59834;52.124;5.422;2022-11-03T05:36:32;101022.63;;;10.28;88.58
71964;BME280;59834;52.124;5.422;2022-11-03T05:39:15;101022.63;;;10.28;89.28
71964;BME280;59834;52.124;5.422;2022-11-03T05:41:42;101025.38;;;10.27;89.35
71964;BME280;59834;52.124;5.422;2022-11-03T05:44:32;101019.28;;;10.26;88.93
71964;BME280;59834;52.124;5.422;2022-11-03T05:47:01;101012.31;;;10.25;89.30
71964;BME280;59834;52.124;5.422;2022-11-03T05:49:32;101006.25;;;10.25;90.03
71964;BME280;59834;52.124;5.422;2022-11-03T05:51:59;101008.84;;;10.26;90.04
71964;BME280;59834;52.124;5.422;2022-11-03T05:54:28;101000.69;;;10.31;89.73
71964;BME280;59834;52.124;5.422;2022-11-03T05:56:57;101000.50;;;10.34;89.28
71964;BME280;59834;52.124;5.422;2022-11-03T05:59:27;101008.06;;;10.38;89.12
71964;BME280;59834;52.124;5.422;2022-11-03T06:01:58;100999.31;;;10.40;89.11
71964;BME280;59834;52.124;5.422;2022-11-03T06:04:30;101012.47;;;10.38;89.65
71964;BME280;59834;52.124;5.422;2022-11-03T06:07:01;101010.78;;;10.37;90.27
71964;BME280;59834;52.124;5.422;2022-11-03T06:09:31;101004.56;;;10.40;90.11
71964;BME280;59834;52.124;5.422;2022-11-03T06:12:01;100995.66;;;10.42;90.04
71964;BME280;59834;52.124;5.422;2022-11-03T06:14:30;100992.00;;;10.45;89.96
71964;BME280;59834;52.124;5.422;2022-11-03T06:17:04;100989.22;;;10.48;89.73
71964;BME280;59834;52.124;5.422;2022-11-03T06:19:34;100986.59;;;10.48;89.77
71964;BME280;59834;52.124;5.422;2022-11-03T06:22:27;100983.88;;;10.49;90.13
71964;BME280;59834;52.124;5.422;2022-11-03T06:24:58;100988.19;;;10.50;90.12
71964;BME280;59834;52.124;5.422;2022-11-03T06:27:27;100977.72;;;10.50;90.51
71964;BME280;59834;52.124;5.422;2022-11-03T06:29:58;100966.41;;;10.50;90.00
71964;BME280;59834;52.124;5.422;2022-11-03T06:32:28;100972.56;;;10.49;90.09
71964;BME280;59834;52.124;5.422;2022-11-03T06:34:56;100959.47;;;10.49;90.73
71964;BME280;59834;52.124;5.422;2022-11-03T06:37:26;100964.81;;;10.47;90.94
71964;BME280;59834;52.124;5.422;2022-11-03T06:40:41;100962.28;;;10.46;90.56
71964;BME280;59834;52.124;5.422;2022-11-03T06:42:51;100957.06;;;10.46;90.72
71964;BME280;59834;52.124;5.422;2022-11-03T06:45:21;100951.75;;;10.47;90.82
71964;BME280;59834;52.124;5.422;2022-11-03T06:47:49;100961.19;;;10.50;91.07
71964;BME280;59834;52.124;5.422;2022-11-03T06:50:26;100953.34;;;10.50;91.02
71964;BME280;59834;52.124;5.422;2022-11-03T06:52:54;100960.25;;;10.51;91.32
71964;BME280;59834;52.124;5.422;2022-11-03T06:57:50;100954.06;;;10.52;91.41
71964;BME280;59834;52.124;5.422;2022-11-03T07:00:26;100954.72;;;10.55;90.69
71964;BME280;59834;52.124;5.422;2022-11-03T07:03:13;100948.66;;;10.55;91.33
71964;BME280;59834;52.124;5.422;2022-11-03T07:05:43;100946.03;;;10.55;91.79
71964;BME280;59834;52.124;5.422;2022-11-03T07:08:28;100945.84;;;10.58;91.12
71964;BME280;59834;52.124;5.422;2022-11-03T07:11:03;100946.59;;;10.60;91.16
71964;BME280;59834;52.124;5.422;2022-11-03T07:13:33;100944.44;;;10.67;91.27
71964;BME280;59834;52.124;5.422;2022-11-03T07:16:00;100946.56;;;10.74;90.90
71964;BME280;59834;52.124;5.422;2022-11-03T07:18:38;100939.19;;;10.81;90.53
71964;BME280;59834;52.124;5.422;2022-11-03T07:23:53;100952.53;;;10.91;90.65
71964;BME280;59834;52.124;5.422;2022-11-03T07:26:20;100953.19;;;10.94;90.65
71964;BME280;59834;52.124;5.422;2022-11-03T07:28:47;100951.28;;;10.96;90.84
71964;BME280;59834;52.124;5.422;2022-11-03T07:31:22;100953.91;;;10.96;90.01
71964;BME280;59834;52.124;5.422;2022-11-03T07:33:55;100940.09;;;10.94;90.13
71964;BME280;59834;52.124;5.422;2022-11-03T07:36:24;100934.66;;;10.97;90.17
71964;BME280;59834;52.124;5.422;2022-11-03T07:38:54;100934.53;;;10.99;90.75
71964;BME280;59834;52.124;5.422;2022-11-03T07:41:26;100934.53;;;10.99;90.52
71964;BME280;59834;52.124;5.422;2022-11-03T07:43:59;100930.06;;;11.01;90.55
71964;BME280;59834;52.124;5.422;2022-11-03T07:46:26;100924.63;;;11.04;90.61
71964;BME280;59834;52.124;5.422;2022-11-03T07:48:57;100931.44;;;11.06;90.49
71964;BME280;59834;52.124;5.422;2022-11-03T07:51:29;100930.41;;;11.09;90.47
71964;BME280;59834;52.124;5.422;2022-11-03T07:54:16;100925.91;;;11.11;90.63
71964;BME280;59834;52.124;5.422;2022-11-03T07:56:47;100923.09;;;11.14;90.28
71964;BME280;59834;52.124;5.422;2022-11-03T07:59:19;100927.19;;;11.18;90.15
71964;BME280;59834;52.124;5.422;2022-11-03T08:01:48;100926.16;;;11.21;89.86
71964;BME280;59834;52.124;5.422;2022-11-03T08:04:29;100913.72;;;11.24;90.00
71964;BME280;59834;52.124;5.422;2022-11-03T08:06:56;100910.13;;;11.25;90.11
71964;BME280;59834;52.124;5.422;2022-11-03T08:09:22;100908.28;;;11.27;89.93
71964;BME280;59834;52.124;5.422;2022-11-03T08:11:50;100912.34;;;11.31;89.64
71964;BME280;59834;52.124;5.422;2022-11-03T08:14:16;100906.16;;;11.32;89.62
71964;BME280;59834;52.124;5.422;2022-11-03T08:16:43;100909.53;;;11.35;89.66
71964;BME280;59834;52.124;5.422;2022-11-03T08:19:09;100905.97;;;11.36;89.91
71964;BME280;59834;52.124;5.422;2022-11-03T08:21:36;100904.81;;;11.40;89.27
71964;BME280;59834;52.124;5.422;2022-11-03T08:24:04;100897.59;;;11.43;89.60
71964;BME280;59834;52.124;5.422;2022-11-03T08:26:30;100898.25;;;11.47;89.08
71964;BME280;59834;52.124;5.422;2022-11-03T08:28:57;100895.31;;;11.51;89.18
71964;BME280;59834;52.124;5.422;2022-11-03T08:31:23;100895.00;;;11.56;88.78
71964;BME280;59834;52.124;5.422;2022-11-03T08:33:49;100890.31;;;11.61;88.86
71964;BME280;59834;52.124;5.422;2022-11-03T08:36:16;100877.22;;;11.61;88.53
71964;BME280;59834;52.124;5.422;2022-11-03T08:38:42;100871.75;;;11.64;88.25
71964;BME280;59834;52.124;5.422;2022-11-03T08:41:09;100861.16;;;11.66;88.53
71964;BME280;59834;52.124;5.422;2022-11-03T08:43:36;100859.28;;;11.68;88.15
71964;BME280;59834;52.124;5.422;2022-11-03T08:46:02;100846.81;;;11.71;88.11
71964;BME280;59834;52.124;5.422;2022-11-03T08:48:42;100834.19;;;11.76;87.78
71964;BME280;59834;52.124;5.422;2022-11-03T08:51:08;100823.41;;;11.81;87.89
71964;BME280;59834;52.124;5.422;2022-11-03T08:53:38;100822.34;;;11.84;87.73
71964;BME280;59834;52.124;5.422;2022-11-03T08:56:05;100820.50;;;11.86;87.35
71964;BME280;59834;52.124;5.422;2022-11-03T08:58:38;100816.69;;;11.90;87.18
71964;BME280;59834;52.124;5.422;2022-11-03T09:01:04;100819.75;;;11.96;87.30
71964;BME280;59834;52.124;5.422;2022-11-03T09:03:31;100812.28;;;12.03;86.18
71964;BME280;59834;52.124;5.422;2022-11-03T09:05:57;100805.56;;;12.12;85.93
71964;BME280;59834;52.124;5.422;2022-11-03T09:08:24;100791.91;;;12.19;85.47
71964;BME280;59834;52.124;5.422;2022-11-03T09:11:10;100796.59;;;12.27;84.82
71964;BME280;59834;52.124;5.422;2022-11-03T09:13:37;100784.41;;;12.39;84.19
71964;BME280;59834;52.124;5.422;2022-11-03T09:16:03;100778.59;;;12.46;83.93
71964;BME280;59834;52.124;5.422;2022-11-03T09:18:30;100758.94;;;12.52;83.81
71964;BME280;59834;52.124;5.422;2022-11-03T09:20:58;100763.22;;;12.53;83.88
71964;BME280;59834;52.124;5.422;2022-11-03T09:23:24;100759.41;;;12.57;83.24
71964;BME280;59834;52.124;5.422;2022-11-03T09:25:50;100753.94;;;12.60;83.52
71964;BME280;59834;52.124;5.422;2022-11-03T09:28:17;100749.44;;;12.62;82.96
71964;BME280;59834;52.124;5.422;2022-11-03T09:30:43;100732.72;;;12.63;83.26
71964;BME280;59834;52.124;5.422;2022-11-03T09:33:10;100734.16;;;12.67;82.84
71964;BME280;59834;52.124;5.422;2022-11-03T09:35:36;100724.53;;;12.68;82.94
71964;BME280;59834;52.124;5.422;2022-11-03T09:38:02;100727.25;;;12.66;82.49
71964;BME280;59834;52.124;5.422;2022-11-03T09:40:29;100715.91;;;12.66;82.78
71964;BME280;59834;52.124;5.422;2022-11-03T09:42:56;100702.66;;;12.67;82.33
71964;BME280;59834;52.124;5.422;2022-11-03T09:45:22;100696.34;;;12.70;82.18
71964;BME280;59834;52.124;5.422;2022-11-03T09:47:49;100698.28;;;12.79;82.48
71964;BME280;59834;52.124;5.422;2022-11-03T09:50:18;100691.53;;;12.88;82.10
71964;BME280;59834;52.124;5.422;2022-11-03T09:52:45;100690.94;;;12.95;81.92
71964;BME280;59834;52.124;5.422;2022-11-03T09:55:24;100680.78;;;13.02;81.68
71964;BME280;59834;52.124;5.422;2022-11-03T09:57:53;100682.72;;;13.11;81.13
71964;BME280;59834;52.124;5.422;2022-11-03T10:00:22;100676.03;;;13.18;80.70
71964;BME280;59834;52.124;5.422;2022-11-03T10:02:49;100669.84;;;13.31;80.32
71964;BME280;59834;52.124;5.422;2022-11-03T10:05:23;100656.94;;;13.28;79.81
71964;BME280;59834;52.124;5.422;2022-11-03T10:08:00;100662.47;;;13.25;80.07
71964;BME280;59834;52.124;5.422;2022-11-03T10:10:28;100656.25;;;13.26;79.33
71964;BME280;59834;52.124;5.422;2022-11-03T10:12:56;100650.84;;;13.27;79.37
71964;BME280;59834;52.124;5.422;2022-11-03T10:15:23;100651.59;;;13.29;79.78
71964;BME280;59834;52.124;5.422;2022-11-03T10:17:50;100642.34;;;13.24;79.63
71964;BME280;59834;52.124;5.422;2022-11-03T10:20:21;100637.09;;;13.24;79.14
71964;BME280;59834;52.124;5.422;2022-11-03T10:22:51;100627.63;;;13.21;79.20
71964;BME280;59834;52.124;5.422;2022-11-03T10:33:39;100615.34;;;13.10;78.94
71964;BME280;59834;52.124;5.422;2022-11-03T10:38:41;100610.09;;;13.10;79.17
71964;BME280;59834;52.124;5.422;2022-11-03T10:43:41;100605.06;;;13.07;79.08
71964;BME280;59834;52.124;5.422;2022-11-03T10:46:19;100589.28;;;13.07;78.79
71964;BME280;59834;52.124;5.422;2022-11-03T10:51:36;100574.13;;;13.11;79.07
71964;BME280;59834;52.124;5.422;2022-11-03T10:54:04;100569.47;;;13.14;78.79
71964;BME280;59834;52.124;5.422;2022-11-03T10:56:31;100573.56;;;13.18;78.52
71964;BME280;59834;52.124;5.422;2022-11-03T10:58:59;100563.63;;;13.22;78.58
71964;BME280;59834;52.124;5.422;2022-11-03T11:01:26;100560.03;;;13.23;77.75
71964;BME280;59834;52.124;5.422;2022-11-03T11:03:52;100546.53;;;13.28;77.94
71964;BME280;59834;52.124;5.422;2022-11-03T11:06:26;100555.66;;;13.35;77.74
71964;BME280;59834;52.124;5.422;2022-11-03T11:08:59;100535.78;;;13.42;77.77
71964;BME280;59834;52.124;5.422;2022-11-03T11:11:27;100542.47;;;13.46;76.62
71964;BME280;59834;52.124;5.422;2022-11-03T11:14:20;100529.91;;;13.50;77.20
71964;BME280;59834;52.124;5.422;2022-11-03T11:19:19;100540.03;;;13.54;77.07
71964;BME280;59834;52.124;5.422;2022-11-03T11:41:05;100505.22;;;13.94;74.25
71964;BME280;59834;52.124;5.422;2022-11-03T11:43:31;100496.84;;;14.00;73.81
71964;BME280;59834;52.124;5.422;2022-11-03T11:46:37;100496.44;;;14.05;74.09
71964;BME280;59834;52.124;5.422;2022-11-03T11:51:36;100468.00;;;14.20;73.67
71964;BME280;59834;52.124;5.422;2022-11-03T11:54:09;100464.41;;;14.21;73.30
71964;BME280;59834;52.124;5.422;2022-11-03T11:56:45;100469.69;;;14.21;72.97
71964;BME280;59834;52.124;5.422;2022-11-03T11:59:18;100457.22;;;14.23;72.87
71964;BME280;59834;52.124;5.422;2022-11-03T12:01:52;100460.19;;;14.29;72.68
71964;BME280;59834;52.124;5.422;2022-11-03T12:04:24;100450.91;;;14.35;71.58
71964;BME280;59834;52.124;5.422;2022-11-03T12:06:51;100441.34;;;14.34;71.65
71964;BME280;59834;52.124;5.422;2022-11-03T12:09:23;100427.50;;;14.32;71.28
71964;BME280;59834;52.124;5.422;2022-11-03T12:14:32;100424.41;;;14.27;71.94
71964;BME280;59834;52.124;5.422;2022-11-03T12:19:48;100399.63;;;14.29;72.18
71964;BME280;59834;52.124;5.422;2022-11-03T12:24:58;100387.56;;;14.27;71.77
71964;BME280;59834;52.124;5.422;2022-11-03T12:30:00;100377.47;;;14.32;71.64
71964;BME280;59834;52.124;5.422;2022-11-03T12:32:27;100369.72;;;14.40;70.86
71964;BME280;59834;52.124;5.422;2022-11-03T12:35:06;100369.88;;;14.48;71.45
71964;BME280;59834;52.124;5.422;2022-11-03T12:37:34;100373.13;;;14.52;70.19
71964;BME280;59834;52.124;5.422;2022-11-03T12:40:00;100364.84;;;14.56;70.28
71964;BME280;59834;52.124;5.422;2022-11-03T12:42:27;100360.94;;;14.60;70.47
71964;BME280;59834;52.124;5.422;2022-11-03T12:44:53;100362.25;;;14.76;69.85
71964;BME280;59834;52.124;5.422;2022-11-03T12:47:20;100363.47;;;14.81;68.81
71964;BME280;59834;52.124;5.422;2022-11-03T12:49:46;100358.66;;;14.87;69.42
71964;BME280;59834;52.124;5.422;2022-11-03T12:52:13;100352.13;;;14.81;68.96
71964;BME280;59834;52.124;5.422;2022-11-03T12:54:40;100344.75;;;14.75;68.99
71964;BME280;59834;52.124;5.422;2022-11-03T12:57:07;100344.75;;;14.75;69.68
71964;BME280;59834;52.124;5.422;2022-11-03T12:59:34;100331.59;;;14.75;69.37
71964;BME280;59834;52.124;5.422;2022-11-03T13:02:00;100334.13;;;14.96;69.63
71964;BME280;59834;52.124;5.422;2022-11-03T13:04:27;100332.72;;;15.21;68.46
71964;BME280;59834;52.124;5.422;2022-11-03T13:06:53;100325.38;;;15.34;67.69
71964;BME280;59834;52.124;5.422;2022-11-03T13:09:20;100314.09;;;15.51;67.05
71964;BME280;59834;52.124;5.422;2022-11-03T13:11:46;100302.16;;;15.57;66.27
71964;BME280;59834;52.124;5.422;2022-11-03T13:14:31;100300.50;;;15.56;66.19
71964;BME280;59834;52.124;5.422;2022-11-03T13:16:58;100291.63;;;15.47;66.36
71964;BME280;59834;52.124;5.422;2022-11-03T13:19:24;100285.53;;;15.37;66.52
71964;BME280;59834;52.124;5.422;2022-11-03T13:21:51;100281.53;;;15.14;67.30
71964;BME280;59834;52.124;5.422;2022-11-03T13:24:17;100278.06;;;15.03;67.92
71964;BME280;59834;52.124;5.422;2022-11-03T13:26:44;100270.59;;;14.89;68.21
71964;BME280;59834;52.124;5.422;2022-11-03T13:29:10;100267.13;;;14.69;68.49
71964;BME280;59834;52.124;5.422;2022-11-03T13:31:37;100271.13;;;14.64;68.54
71964;BME280;59834;52.124;5.422;2022-11-03T13:34:03;100261.84;;;14.59;69.00
71964;BME280;59834;52.124;5.422;2022-11-03T13:36:30;100257.25;;;14.52;69.17
71964;BME280;59834;52.124;5.422;2022-11-03T13:38:56;100251.38;;;14.48;69.38
71964;BME280;59834;52.124;5.422;2022-11-03T13:41:23;100238.50;;;14.45;69.63
71964;BME280;59834;52.124;5.422;2022-11-03T13:43:50;100222.13;;;14.42;69.82
71964;BME280;59834;52.124;5.422;2022-11-03T13:46:16;100218.69;;;14.41;69.85
71964;BME280;59834;52.124;5.422;2022-11-03T13:48:43;100210.66;;;14.43;70.13
71964;BME280;59834;52.124;5.422;2022-11-03T13:51:29;100213.84;;;14.46;69.55
71964;BME280;59834;52.124;5.422;2022-11-03T13:53:56;100213.69;;;14.48;70.01
71964;BME280;59834;52.124;5.422;2022-11-03T13:56:42;100218.84;;;14.49;70.11
71964;BME280;59834;52.124;5.422;2022-11-03T13:59:29;100215.78;;;14.44;70.14
71964;BME280;59834;52.124;5.422;2022-11-03T14:01:55;100217.03;;;14.40;70.12
71964;BME280;59834;52.124;5.422;2022-11-03T14:04:42;100213.13;;;14.34;70.16
71964;BME280;59834;52.124;5.422;2022-11-03T14:07:09;100203.13;;;14.28;70.13
71964;BME280;59834;52.124;5.422;2022-11-03T14:09:36;100190.28;;;14.25;70.42
71964;BME280;59834;52.124;5.422;2022-11-03T14:12:03;100177.50;;;14.21;70.79
71964;BME280;59834;52.124;5.422;2022-11-03T14:14:48;100176.25;;;14.15;70.88
71964;BME280;59834;52.124;5.422;2022-11-03T14:17:15;100169.47;;;14.12;71.06
71964;BME280;59834;52.124;5.422;2022-11-03T14:19:41;100162.84;;;14.08;71.35
71964;BME280;59834;52.124;5.422;2022-11-03T14:22:17;100165.75;;;14.05;71.67
71964;BME280;59834;52.124;5.422;2022-11-03T14:24:44;100165.03;;;14.03;71.24